sensor_id;sensor_type;location;lat;lon;timestamp;P1;durP1;ratioP1;P2;durP2;ratioP2
16308;SDS011;8263;48.880;9.276;2023-05-10T00:00:29;116.03;;;108.35;;
16308;SDS011;8263;48.880;9.276;2023-05-10T00:02:56;115.57;;;107.97;;
16308;SDS011;8263;48.880;9.276;2023-05-10T00:05:24;114.70;;;107.10;;
16308;SDS011;8263;48.880;9.276;2023-05-10T00:07:50;116.18;;;108.47;;
16308;SDS011;8263;48.880;9.276;2023-05-10T00:10:17;114.07;;;106.57;;
16308;SDS011;8263;48.880;9.276;2023-05-10T00:12:44;113.65;;;106.15;;
16308;SDS011;8263;48.880;9.276;2023-05-10T00:15:10;116.35;;;108.65;;
16308;SDS011;8263;48.880;9.276;2023-05-10T00:17:37;114.82;;;107.22;;
16308;SDS011;8263;48.880;9.276;2023-05-10T00:20:04;116.22;;;108.53;;
16308;SDS011;8263;48.880;9.276;2023-05-10T00:22:33;115.13;;;107.53;;
16308;SDS011;8263;48.880;9.276;2023-05-10T00:25:00;115.05;;;107.45;;
16308;SDS011;8263;48.880;9.276;2023-05-10T00:27:27;116.22;;;108.53;;
16308;SDS011;8263;48.880;9.276;2023-05-10T00:29:53;116.60;;;108.90;;
16308;SDS011;8263;48.880;9.276;2023-05-10T00:32:19;115.28;;;107.68;;
16308;SDS011;8263;48.880;9.276;2023-05-10T00:34:46;116.65;;;108.95;;
16308;SDS011;8263;48.880;9.276;2023-05-10T00:37:13;116.00;;;108.30;;
16308;SDS011;8263;48.880;9.276;2023-05-10T00:39:41;115.25;;;107.63;;
16308;SDS011;8263;48.880;9.276;2023-05-10T00:42:07;114.82;;;107.25;;
16308;SDS011;8263;48.880;9.276;2023-05-10T00:44:34;117.53;;;109.72;;
16308;SDS011;8263;48.880;9.276;2023-05-10T00:47:00;116.40;;;108.70;;
16308;SDS011;8263;48.880;9.276;2023-05-10T00:49:27;116.32;;;108.63;;
16308;SDS011;8263;48.880;9.276;2023-05-10T00:51:54;115.22;;;107.60;;
16308;SDS011;8263;48.880;9.276;2023-05-10T00:54:21;114.72;;;107.13;;
16308;SDS011;8263;48.880;9.276;2023-05-10T00:56:49;115.30;;;107.70;;
16308;SDS011;8263;48.880;9.276;2023-05-10T00:59:16;118.25;;;110.35;;
16308;SDS011;8263;48.880;9.276;2023-05-10T01:01:43;119.10;;;111.20;;
16308;SDS011;8263;48.880;9.276;2023-05-10T01:04:10;115.65;;;108.05;;
16308;SDS011;8263;48.880;9.276;2023-05-10T01:06:37;116.05;;;108.35;;
16308;SDS011;8263;48.880;9.276;2023-05-10T01:09:04;116.00;;;108.30;;
16308;SDS011;8263;48.880;9.276;2023-05-10T01:11:31;117.90;;;110.10;;
16308;SDS011;8263;48.880;9.276;2023-05-10T01:13:59;116.13;;;108.43;;
16308;SDS011;8263;48.880;9.276;2023-05-10T01:16:26;118.15;;;110.30;;
16308;SDS011;8263;48.880;9.276;2023-05-10T01:18:53;118.10;;;110.28;;
16308;SDS011;8263;48.880;9.276;2023-05-10T01:21:22;117.90;;;110.10;;
16308;SDS011;8263;48.880;9.276;2023-05-10T01:29:36;118.60;;;110.70;;
16308;SDS011;8263;48.880;9.276;2023-05-10T01:32:10;119.57;;;111.57;;
16308;SDS011;8263;48.880;9.276;2023-05-10T01:34:39;120.80;;;112.72;;
16308;SDS011;8263;48.880;9.276;2023-05-10T01:37:09;119.80;;;111.80;;
16308;SDS011;8263;48.880;9.276;2023-05-10T01:39:39;118.78;;;110.88;;
16308;SDS011;8263;48.880;9.276;2023-05-10T01:42:07;119.13;;;111.13;;
16308;SDS011;8263;48.880;9.276;2023-05-10T01:44:37;118.57;;;110.68;;
16308;SDS011;8263;48.880;9.276;2023-05-10T01:47:05;117.53;;;109.72;;
16308;SDS011;8263;48.880;9.276;2023-05-10T01:49:34;118.55;;;110.65;;
16308;SDS011;8263;48.880;9.276;2023-05-10T01:52:04;119.75;;;111.75;;
16308;SDS011;8263;48.880;9.276;2023-05-10T01:54:32;117.25;;;109.45;;
16308;SDS011;8263;48.880;9.276;2023-05-10T01:57:01;120.63;;;112.53;;
16308;SDS011;8263;48.880;9.276;2023-05-10T01:59:29;117.80;;;109.95;;
16308;SDS011;8263;48.880;9.276;2023-05-10T02:01:57;118.68;;;110.78;;
16308;SDS011;8263;48.880;9.276;2023-05-10T02:04:25;119.10;;;111.20;;
16308;SDS011;8263;48.880;9.276;2023-05-10T02:06:54;119.38;;;111.40;;
16308;SDS011;8263;48.880;9.276;2023-05-10T02:09:21;120.53;;;112.53;;
16308;SDS011;8263;48.880;9.276;2023-05-10T02:11:50;119.90;;;111.82;;
16308;SDS011;8263;48.880;9.276;2023-05-10T02:14:16;119.32;;;111.38;;
16308;SDS011;8263;48.880;9.276;2023-05-10T02:16:44;119.13;;;111.18;;
16308;SDS011;8263;48.880;9.276;2023-05-10T02:19:12;121.47;;;113.38;;
16308;SDS011;8263;48.880;9.276;2023-05-10T02:21:40;118.53;;;110.63;;
16308;SDS011;8263;48.880;9.276;2023-05-10T02:24:09;119.60;;;111.60;;
16308;SDS011;8263;48.880;9.276;2023-05-10T02:26:37;118.68;;;110.78;;
16308;SDS011;8263;48.880;9.276;2023-05-10T02:29:04;119.43;;;111.45;;
16308;SDS011;8263;48.880;9.276;2023-05-10T02:31:32;121.07;;;112.97;;
16308;SDS011;8263;48.880;9.276;2023-05-10T02:33:59;118.13;;;110.13;;
16308;SDS011;8263;48.880;9.276;2023-05-10T02:36:26;120.63;;;112.57;;
16308;SDS011;8263;48.880;9.276;2023-05-10T02:38:53;117.55;;;109.75;;
16308;SDS011;8263;48.880;9.276;2023-05-10T02:41:22;118.20;;;110.32;;
16308;SDS011;8263;48.880;9.276;2023-05-10T02:43:49;119.50;;;111.50;;
16308;SDS011;8263;48.880;9.276;2023-05-10T02:46:16;119.90;;;111.90;;
16308;SDS011;8263;48.880;9.276;2023-05-10T02:48:43;118.85;;;110.95;;
16308;SDS011;8263;48.880;9.276;2023-05-10T02:51:09;119.00;;;111.05;;
16308;SDS011;8263;48.880;9.276;2023-05-10T02:53:38;118.57;;;110.65;;
16308;SDS011;8263;48.880;9.276;2023-05-10T02:56:09;119.30;;;111.32;;
16308;SDS011;8263;48.880;9.276;2023-05-10T02:58:38;120.38;;;112.30;;
16308;SDS011;8263;48.880;9.276;2023-05-10T03:01:05;119.65;;;111.65;;
16308;SDS011;8263;48.880;9.276;2023-05-10T03:03:32;121.22;;;113.13;;
16308;SDS011;8263;48.880;9.276;2023-05-10T03:05:59;120.65;;;112.57;;
16308;SDS011;8263;48.880;9.276;2023-05-10T03:08:25;120.00;;;112.00;;
16308;SDS011;8263;48.880;9.276;2023-05-10T03:10:55;118.95;;;111.05;;
16308;SDS011;8263;48.880;9.276;2023-05-10T03:13:29;121.38;;;113.28;;
16308;SDS011;8263;48.880;9.276;2023-05-10T03:15:59;121.07;;;112.97;;
16308;SDS011;8263;48.880;9.276;2023-05-10T03:18:33;120.97;;;112.88;;
16308;SDS011;8263;48.880;9.276;2023-05-10T03:21:03;121.13;;;113.03;;
16308;SDS011;8263;48.880;9.276;2023-05-10T03:23:34;120.75;;;112.68;;
16308;SDS011;8263;48.880;9.276;2023-05-10T03:26:01;120.32;;;112.30;;
16308;SDS011;8263;48.880;9.276;2023-05-10T03:28:27;121.43;;;113.32;;
16308;SDS011;8263;48.880;9.276;2023-05-10T03:30:54;121.40;;;113.25;;
16308;SDS011;8263;48.880;9.276;2023-05-10T03:33:23;120.22;;;112.18;;
16308;SDS011;8263;48.880;9.276;2023-05-10T03:35:50;121.95;;;113.75;;
16308;SDS011;8263;48.880;9.276;2023-05-10T03:38:16;120.07;;;112.05;;
16308;SDS011;8263;48.880;9.276;2023-05-10T03:40:43;119.68;;;111.68;;
16308;SDS011;8263;48.880;9.276;2023-05-10T03:43:10;118.97;;;110.97;;
16308;SDS011;8263;48.880;9.276;2023-05-10T03:45:36;120.40;;;112.30;;
16308;SDS011;8263;48.880;9.276;2023-05-10T03:48:02;120.68;;;112.57;;
16308;SDS011;8263;48.880;9.276;2023-05-10T03:50:31;122.13;;;113.93;;
16308;SDS011;8263;48.880;9.276;2023-05-10T03:52:57;122.03;;;113.82;;
16308;SDS011;8263;48.880;9.276;2023-05-10T03:55:24;122.40;;;114.10;;
16308;SDS011;8263;48.880;9.276;2023-05-10T03:57:51;120.50;;;112.43;;
16308;SDS011;8263;48.880;9.276;2023-05-10T04:00:19;120.95;;;112.85;;
16308;SDS011;8263;48.880;9.276;2023-05-10T04:02:45;120.88;;;112.78;;
16308;SDS011;8263;48.880;9.276;2023-05-10T04:05:12;120.43;;;112.32;;
16308;SDS011;8263;48.880;9.276;2023-05-10T04:07:40;121.25;;;113.15;;
16308;SDS011;8263;48.880;9.276;2023-05-10T04:10:07;120.88;;;112.78;;
16308;SDS011;8263;48.880;9.276;2023-05-10T04:12:34;119.97;;;111.95;;
16308;SDS011;8263;48.880;9.276;2023-05-10T04:15:00;119.03;;;111.05;;
16308;SDS011;8263;48.880;9.276;2023-05-10T04:17:27;120.95;;;112.85;;
16308;SDS011;8263;48.880;9.276;2023-05-10T04:19:54;120.30;;;112.22;;
16308;SDS011;8263;48.880;9.276;2023-05-10T04:22:20;119.75;;;111.70;;
16308;SDS011;8263;48.880;9.276;2023-05-10T04:24:48;121.80;;;113.60;;
16308;SDS011;8263;48.880;9.276;2023-05-10T04:27:15;120.53;;;112.45;;
16308;SDS011;8263;48.880;9.276;2023-05-10T04:29:41;120.75;;;112.65;;
16308;SDS011;8263;48.880;9.276;2023-05-10T04:32:08;120.55;;;112.45;;
16308;SDS011;8263;48.880;9.276;2023-05-10T04:34:36;122.03;;;113.80;;
16308;SDS011;8263;48.880;9.276;2023-05-10T04:37:03;123.10;;;114.80;;
16308;SDS011;8263;48.880;9.276;2023-05-10T04:39:29;122.05;;;113.85;;
16308;SDS011;8263;48.880;9.276;2023-05-10T04:41:58;121.43;;;113.22;;
16308;SDS011;8263;48.880;9.276;2023-05-10T04:44:25;122.43;;;114.18;;
16308;SDS011;8263;48.880;9.276;2023-05-10T04:46:51;123.00;;;114.70;;
16308;SDS011;8263;48.880;9.276;2023-05-10T04:49:17;122.20;;;113.97;;
16308;SDS011;8263;48.880;9.276;2023-05-10T04:51:44;122.65;;;114.35;;
16308;SDS011;8263;48.880;9.276;2023-05-10T04:54:11;122.85;;;114.55;;
16308;SDS011;8263;48.880;9.276;2023-05-10T04:56:38;123.18;;;114.88;;
16308;SDS011;8263;48.880;9.276;2023-05-10T04:59:06;121.50;;;113.35;;
16308;SDS011;8263;48.880;9.276;2023-05-10T05:01:33;122.88;;;114.60;;
16308;SDS011;8263;48.880;9.276;2023-05-10T05:03:59;121.97;;;113.78;;
16308;SDS011;8263;48.880;9.276;2023-05-10T05:06:26;121.28;;;113.15;;
16308;SDS011;8263;48.880;9.276;2023-05-10T05:08:53;122.72;;;114.43;;
16308;SDS011;8263;48.880;9.276;2023-05-10T05:11:19;121.80;;;113.53;;
16308;SDS011;8263;48.880;9.276;2023-05-10T05:13:47;121.03;;;112.90;;
16308;SDS011;8263;48.880;9.276;2023-05-10T05:16:15;121.03;;;112.93;;
16308;SDS011;8263;48.880;9.276;2023-05-10T05:18:41;122.43;;;114.05;;
16308;SDS011;8263;48.880;9.276;2023-05-10T05:21:13;120.10;;;112.00;;
16308;SDS011;8263;48.880;9.276;2023-05-10T05:23:39;122.47;;;114.20;;
16308;SDS011;8263;48.880;9.276;2023-05-10T05:26:06;121.53;;;113.32;;
16308;SDS011;8263;48.880;9.276;2023-05-10T05:28:33;121.47;;;113.25;;
16308;SDS011;8263;48.880;9.276;2023-05-10T05:31:02;121.55;;;113.35;;
16308;SDS011;8263;48.880;9.276;2023-05-10T05:33:30;122.15;;;113.95;;
16308;SDS011;8263;48.880;9.276;2023-05-10T05:35:56;120.18;;;112.07;;
16308;SDS011;8263;48.880;9.276;2023-05-10T05:38:23;121.35;;;113.13;;
16308;SDS011;8263;48.880;9.276;2023-05-10T05:40:50;122.03;;;113.82;;
16308;SDS011;8263;48.880;9.276;2023-05-10T05:43:16;121.47;;;113.28;;
16308;SDS011;8263;48.880;9.276;2023-05-10T05:45:43;122.57;;;114.32;;
16308;SDS011;8263;48.880;9.276;2023-05-10T05:48:09;121.50;;;113.28;;
16308;SDS011;8263;48.880;9.276;2023-05-10T05:50:38;122.90;;;114.55;;
16308;SDS011;8263;48.880;9.276;2023-05-10T05:53:04;122.05;;;113.82;;
16308;SDS011;8263;48.880;9.276;2023-05-10T05:55:31;119.40;;;111.38;;
16308;SDS011;8263;48.880;9.276;2023-05-10T05:57:58;120.63;;;112.53;;
16308;SDS011;8263;48.880;9.276;2023-05-10T06:00:24;122.60;;;114.20;;
16308;SDS011;8263;48.880;9.276;2023-05-10T06:02:51;120.93;;;112.82;;
16308;SDS011;8263;48.880;9.276;2023-05-10T06:05:18;122.22;;;114.03;;
16308;SDS011;8263;48.880;9.276;2023-05-10T06:07:46;123.18;;;114.88;;
16308;SDS011;8263;48.880;9.276;2023-05-10T06:10:13;122.65;;;114.35;;
16308;SDS011;8263;48.880;9.276;2023-05-10T06:12:39;121.35;;;113.15;;
16308;SDS011;8263;48.880;9.276;2023-05-10T06:15:07;123.18;;;114.88;;
16308;SDS011;8263;48.880;9.276;2023-05-10T06:17:33;120.75;;;112.65;;
16308;SDS011;8263;48.880;9.276;2023-05-10T06:20:00;120.93;;;112.82;;
16308;SDS011;8263;48.880;9.276;2023-05-10T06:22:26;122.18;;;113.97;;
16308;SDS011;8263;48.880;9.276;2023-05-10T06:24:54;120.80;;;112.68;;
16308;SDS011;8263;48.880;9.276;2023-05-10T06:27:21;120.97;;;112.88;;
16308;SDS011;8263;48.880;9.276;2023-05-10T06:29:48;122.95;;;114.65;;
16308;SDS011;8263;48.880;9.276;2023-05-10T06:32:14;121.72;;;113.53;;
16308;SDS011;8263;48.880;9.276;2023-05-10T06:34:41;120.53;;;112.43;;
16308;SDS011;8263;48.880;9.276;2023-05-10T06:37:08;118.28;;;110.32;;
16308;SDS011;8263;48.880;9.276;2023-05-10T06:39:35;120.47;;;112.38;;
16308;SDS011;8263;48.880;9.276;2023-05-10T06:42:03;119.93;;;111.80;;
16308;SDS011;8263;48.880;9.276;2023-05-10T06:44:30;121.90;;;113.70;;
16308;SDS011;8263;48.880;9.276;2023-05-10T06:46:56;120.75;;;112.65;;
16308;SDS011;8263;48.880;9.276;2023-05-10T06:49:23;119.88;;;111.78;;
16308;SDS011;8263;48.880;9.276;2023-05-10T06:51:50;119.47;;;111.45;;
16308;SDS011;8263;48.880;9.276;2023-05-10T06:54:16;120.80;;;112.70;;
16308;SDS011;8263;48.880;9.276;2023-05-10T06:56:43;120.65;;;112.55;;
16308;SDS011;8263;48.880;9.276;2023-05-10T06:59:11;121.90;;;113.70;;
16308;SDS011;8263;48.880;9.276;2023-05-10T07:01:38;120.32;;;112.28;;
16308;SDS011;8263;48.880;9.276;2023-05-10T07:04:05;121.53;;;113.22;;
16308;SDS011;8263;48.880;9.276;2023-05-10T07:06:32;120.25;;;112.18;;
16308;SDS011;8263;48.880;9.276;2023-05-10T07:08:59;120.25;;;112.15;;
16308;SDS011;8263;48.880;9.276;2023-05-10T07:11:25;122.13;;;113.93;;
16308;SDS011;8263;48.880;9.276;2023-05-10T07:13:52;122.55;;;114.35;;
16308;SDS011;8263;48.880;9.276;2023-05-10T07:16:21;122.72;;;114.43;;
16308;SDS011;8263;48.880;9.276;2023-05-10T07:18:48;119.93;;;111.90;;
16308;SDS011;8263;48.880;9.276;2023-05-10T07:21:15;121.22;;;113.10;;
16308;SDS011;8263;48.880;9.276;2023-05-10T07:23:41;120.97;;;112.88;;
16308;SDS011;8263;48.880;9.276;2023-05-10T07:26:08;120.53;;;112.47;;
16308;SDS011;8263;48.880;9.276;2023-05-10T07:28:35;122.95;;;114.65;;
16308;SDS011;8263;48.880;9.276;2023-05-10T07:31:02;121.22;;;113.13;;
16308;SDS011;8263;48.880;9.276;2023-05-10T07:33:30;120.65;;;112.55;;
16308;SDS011;8263;48.880;9.276;2023-05-10T07:35:57;120.20;;;112.15;;
16308;SDS011;8263;48.880;9.276;2023-05-10T07:38:23;119.00;;;111.00;;
16308;SDS011;8263;48.880;9.276;2023-05-10T07:40:50;120.80;;;112.70;;
16308;SDS011;8263;48.880;9.276;2023-05-10T07:43:16;121.57;;;113.40;;
16308;SDS011;8263;48.880;9.276;2023-05-10T07:45:43;121.10;;;113.00;;
16308;SDS011;8263;48.880;9.276;2023-05-10T07:48:09;121.30;;;113.20;;
16308;SDS011;8263;48.880;9.276;2023-05-10T07:50:37;121.75;;;113.45;;
16308;SDS011;8263;48.880;9.276;2023-05-10T07:53:04;120.45;;;112.38;;
16308;SDS011;8263;48.880;9.276;2023-05-10T07:55:30;119.78;;;111.78;;
16308;SDS011;8263;48.880;9.276;2023-05-10T07:57:57;121.03;;;112.93;;
16308;SDS011;8263;48.880;9.276;2023-05-10T08:00:26;119.97;;;111.97;;
16308;SDS011;8263;48.880;9.276;2023-05-10T08:02:52;118.10;;;110.25;;
16308;SDS011;8263;48.880;9.276;2023-05-10T08:05:19;119.47;;;111.47;;
16308;SDS011;8263;48.880;9.276;2023-05-10T08:07:47;118.90;;;110.90;;
16308;SDS011;8263;48.880;9.276;2023-05-10T08:10:13;120.45;;;112.40;;
16308;SDS011;8263;48.880;9.276;2023-05-10T08:12:40;118.55;;;110.65;;
16308;SDS011;8263;48.880;9.276;2023-05-10T08:15:07;119.00;;;111.00;;
16308;SDS011;8263;48.880;9.276;2023-05-10T08:17:34;119.20;;;111.18;;
16308;SDS011;8263;48.880;9.276;2023-05-10T08:20:01;119.40;;;111.40;;
16308;SDS011;8263;48.880;9.276;2023-05-10T08:22:27;119.13;;;111.13;;
16308;SDS011;8263;48.880;9.276;2023-05-10T08:24:55;119.88;;;111.88;;
16308;SDS011;8263;48.880;9.276;2023-05-10T08:27:22;120.82;;;112.72;;
16308;SDS011;8263;48.880;9.276;2023-05-10T08:29:48;117.90;;;110.05;;
16308;SDS011;8263;48.880;9.276;2023-05-10T08:32:15;119.30;;;111.32;;
16308;SDS011;8263;48.880;9.276;2023-05-10T08:34:41;120.30;;;112.25;;
16308;SDS011;8263;48.880;9.276;2023-05-10T08:37:08;120.43;;;112.40;;
16308;SDS011;8263;48.880;9.276;2023-05-10T08:39:35;119.22;;;111.28;;
16308;SDS011;8263;48.880;9.276;2023-05-10T08:42:03;119.13;;;111.15;;
16308;SDS011;8263;48.880;9.276;2023-05-10T08:44:30;118.28;;;110.38;;
16308;SDS011;8263;48.880;9.276;2023-05-10T08:46:58;119.65;;;111.65;;
16308;SDS011;8263;48.880;9.276;2023-05-10T08:49:25;117.38;;;109.57;;
16308;SDS011;8263;48.880;9.276;2023-05-10T08:51:54;120.50;;;112.40;;
16308;SDS011;8263;48.880;9.276;2023-05-10T08:54:21;120.68;;;112.57;;
16308;SDS011;8263;48.880;9.276;2023-05-10T08:56:48;120.30;;;112.20;;
16308;SDS011;8263;48.880;9.276;2023-05-10T08:59:16;118.32;;;110.43;;
16308;SDS011;8263;48.880;9.276;2023-05-10T09:01:43;120.63;;;112.57;;
16308;SDS011;8263;48.880;9.276;2023-05-10T09:04:10;119.30;;;111.30;;
16308;SDS011;8263;48.880;9.276;2023-05-10T09:06:37;119.05;;;111.10;;
16308;SDS011;8263;48.880;9.276;2023-05-10T09:09:03;117.95;;;110.10;;
16308;SDS011;8263;48.880;9.276;2023-05-10T09:11:30;118.80;;;110.88;;
16308;SDS011;8263;48.880;9.276;2023-05-10T09:13:57;118.78;;;110.85;;
16308;SDS011;8263;48.880;9.276;2023-05-10T09:16:25;117.40;;;109.60;;
16308;SDS011;8263;48.880;9.276;2023-05-10T09:18:51;119.38;;;111.35;;
16308;SDS011;8263;48.880;9.276;2023-05-10T09:21:19;117.55;;;109.75;;
16308;SDS011;8263;48.880;9.276;2023-05-10T09:23:45;118.53;;;110.63;;
16308;SDS011;8263;48.880;9.276;2023-05-10T09:26:12;118.88;;;110.95;;
16308;SDS011;8263;48.880;9.276;2023-05-10T09:28:49;119.05;;;111.15;;
16308;SDS011;8263;48.880;9.276;2023-05-10T09:31:16;118.40;;;110.50;;
16308;SDS011;8263;48.880;9.276;2023-05-10T09:33:45;118.40;;;110.50;;
16308;SDS011;8263;48.880;9.276;2023-05-10T09:36:12;121.50;;;113.40;;
16308;SDS011;8263;48.880;9.276;2023-05-10T09:38:45;117.88;;;110.05;;
16308;SDS011;8263;48.880;9.276;2023-05-10T09:41:15;118.82;;;110.93;;
16308;SDS011;8263;48.880;9.276;2023-05-10T09:43:42;118.28;;;110.38;;
16308;SDS011;8263;48.880;9.276;2023-05-10T09:46:08;119.28;;;111.32;;
16308;SDS011;8263;48.880;9.276;2023-05-10T09:48:37;119.50;;;111.55;;
16308;SDS011;8263;48.880;9.276;2023-05-10T09:51:07;117.45;;;109.65;;
16308;SDS011;8263;48.880;9.276;2023-05-10T09:53:34;119.00;;;111.10;;
16308;SDS011;8263;48.880;9.276;2023-05-10T09:56:00;117.68;;;109.88;;
16308;SDS011;8263;48.880;9.276;2023-05-10T09:58:26;118.85;;;110.95;;
16308;SDS011;8263;48.880;9.276;2023-05-10T10:00:53;116.00;;;108.30;;
16308;SDS011;8263;48.880;9.276;2023-05-10T10:03:21;117.25;;;109.47;;
16308;SDS011;8263;48.880;9.276;2023-05-10T10:05:47;114.60;;;107.03;;
16308;SDS011;8263;48.880;9.276;2023-05-10T10:08:16;117.90;;;110.00;;
16308;SDS011;8263;48.880;9.276;2023-05-10T10:10:43;117.50;;;109.70;;
16308;SDS011;8263;48.880;9.276;2023-05-10T10:13:11;118.43;;;110.55;;
16308;SDS011;8263;48.880;9.276;2023-05-10T10:15:38;116.20;;;108.50;;
16308;SDS011;8263;48.880;9.276;2023-05-10T10:18:05;115.47;;;107.85;;
16308;SDS011;8263;48.880;9.276;2023-05-10T10:20:31;115.32;;;107.72;;
16308;SDS011;8263;48.880;9.276;2023-05-10T10:22:58;117.75;;;109.95;;
16308;SDS011;8263;48.880;9.276;2023-05-10T10:25:26;114.93;;;107.32;;
16308;SDS011;8263;48.880;9.276;2023-05-10T10:27:59;115.38;;;107.78;;
16308;SDS011;8263;48.880;9.276;2023-05-10T10:30:28;116.40;;;108.70;;
16308;SDS011;8263;48.880;9.276;2023-05-10T10:33:06;114.90;;;107.15;;
16308;SDS011;8263;48.880;9.276;2023-05-10T10:35:34;116.13;;;108.45;;
16308;SDS011;8263;48.880;9.276;2023-05-10T10:38:01;113.68;;;106.18;;
16308;SDS011;8263;48.880;9.276;2023-05-10T10:40:29;113.47;;;105.97;;
16308;SDS011;8263;48.880;9.276;2023-05-10T10:42:57;117.05;;;109.35;;
16308;SDS011;8263;48.880;9.276;2023-05-10T10:45:24;113.43;;;105.95;;
16308;SDS011;8263;48.880;9.276;2023-05-10T10:47:53;114.03;;;106.53;;
16308;SDS011;8263;48.880;9.276;2023-05-10T10:50:44;112.15;;;104.78;;
16308;SDS011;8263;48.880;9.276;2023-05-10T10:53:11;114.60;;;107.03;;
16308;SDS011;8263;48.880;9.276;2023-05-10T10:55:46;113.68;;;106.20;;
16308;SDS011;8263;48.880;9.276;2023-05-10T10:58:16;114.38;;;106.85;;
16308;SDS011;8263;48.880;9.276;2023-05-10T11:01:00;114.32;;;106.82;;
16308;SDS011;8263;48.880;9.276;2023-05-10T11:03:35;112.90;;;105.50;;
16308;SDS011;8263;48.880;9.276;2023-05-10T11:06:01;113.63;;;106.13;;
16308;SDS011;8263;48.880;9.276;2023-05-10T11:08:28;115.70;;;108.10;;
16308;SDS011;8263;48.880;9.276;2023-05-10T11:11:06;112.82;;;105.43;;
16308;SDS011;8263;48.880;9.276;2023-05-10T11:13:34;115.68;;;108.07;;
16308;SDS011;8263;48.880;9.276;2023-05-10T11:16:10;114.22;;;106.72;;
16308;SDS011;8263;48.880;9.276;2023-05-10T11:18:37;115.50;;;107.90;;
16308;SDS011;8263;48.880;9.276;2023-05-10T11:21:04;113.88;;;106.38;;
16308;SDS011;8263;48.880;9.276;2023-05-10T11:23:31;114.47;;;106.93;;
16308;SDS011;8263;48.880;9.276;2023-05-10T11:25:59;112.80;;;105.35;;
16308;SDS011;8263;48.880;9.276;2023-05-10T11:28:27;113.85;;;106.25;;
16308;SDS011;8263;48.880;9.276;2023-05-10T11:30:53;114.80;;;107.20;;
16308;SDS011;8263;48.880;9.276;2023-05-10T11:33:20;114.55;;;107.05;;
16308;SDS011;8263;48.880;9.276;2023-05-10T11:35:47;110.97;;;103.60;;
16308;SDS011;8263;48.880;9.276;2023-05-10T11:38:14;112.57;;;105.18;;
16308;SDS011;8263;48.880;9.276;2023-05-10T11:40:41;110.75;;;103.50;;
16308;SDS011;8263;48.880;9.276;2023-05-10T11:43:08;110.13;;;102.90;;
16308;SDS011;8263;48.880;9.276;2023-05-10T11:45:36;114.00;;;106.50;;
16308;SDS011;8263;48.880;9.276;2023-05-10T11:48:02;113.00;;;105.60;;
16308;SDS011;8263;48.880;9.276;2023-05-10T11:50:29;114.15;;;106.65;;
16308;SDS011;8263;48.880;9.276;2023-05-10T11:52:56;112.18;;;104.82;;
16308;SDS011;8263;48.880;9.276;2023-05-10T11:55:23;112.30;;;104.88;;
16308;SDS011;8263;48.880;9.276;2023-05-10T11:57:51;113.85;;;106.35;;
16308;SDS011;8263;48.880;9.276;2023-05-10T12:00:18;110.68;;;103.47;;
16308;SDS011;8263;48.880;9.276;2023-05-10T12:02:46;113.35;;;105.85;;
16308;SDS011;8263;48.880;9.276;2023-05-10T12:05:12;110.05;;;102.85;;
16308;SDS011;8263;48.880;9.276;2023-05-10T12:07:39;110.65;;;103.45;;
16308;SDS011;8263;48.880;9.276;2023-05-10T12:10:06;111.65;;;104.25;;
16308;SDS011;8263;48.880;9.276;2023-05-10T12:12:39;111.85;;;104.55;;
16308;SDS011;8263;48.880;9.276;2023-05-10T12:15:10;111.85;;;104.55;;
16308;SDS011;8263;48.880;9.276;2023-05-10T12:17:37;108.75;;;101.65;;
16308;SDS011;8263;48.880;9.276;2023-05-10T12:20:14;109.63;;;101.97;;
16308;SDS011;8263;48.880;9.276;2023-05-10T12:22:41;112.65;;;105.25;;
16308;SDS011;8263;48.880;9.276;2023-05-10T12:25:09;112.88;;;105.47;;
16308;SDS011;8263;48.880;9.276;2023-05-10T12:27:36;109.30;;;102.18;;
16308;SDS011;8263;48.880;9.276;2023-05-10T12:30:03;111.43;;;104.13;;
16308;SDS011;8263;48.880;9.276;2023-05-10T12:32:39;111.13;;;103.82;;
16308;SDS011;8263;48.880;9.276;2023-05-10T12:35:06;110.55;;;103.35;;
16308;SDS011;8263;48.880;9.276;2023-05-10T12:37:34;111.68;;;104.18;;
16308;SDS011;8263;48.880;9.276;2023-05-10T12:40:05;109.60;;;102.40;;
16308;SDS011;8263;48.880;9.276;2023-05-10T12:42:33;109.13;;;102.03;;
16308;SDS011;8263;48.880;9.276;2023-05-10T12:44:59;111.47;;;104.18;;
16308;SDS011;8263;48.880;9.276;2023-05-10T12:47:26;110.90;;;103.50;;
16308;SDS011;8263;48.880;9.276;2023-05-10T12:49:52;109.82;;;102.63;;
16308;SDS011;8263;48.880;9.276;2023-05-10T12:52:19;113.22;;;105.82;;
16308;SDS011;8263;48.880;9.276;2023-05-10T12:54:47;111.20;;;103.90;;
16308;SDS011;8263;48.880;9.276;2023-05-10T12:57:14;111.97;;;104.63;;
16308;SDS011;8263;48.880;9.276;2023-05-10T12:59:40;110.45;;;103.25;;
16308;SDS011;8263;48.880;9.276;2023-05-10T13:02:08;109.25;;;101.70;;
16308;SDS011;8263;48.880;9.276;2023-05-10T13:04:35;111.97;;;104.68;;
16308;SDS011;8263;48.880;9.276;2023-05-10T13:07:04;110.95;;;103.65;;
16308;SDS011;8263;48.880;9.276;2023-05-10T13:09:31;111.07;;;103.82;;
16308;SDS011;8263;48.880;9.276;2023-05-10T13:11:59;110.32;;;103.13;;
16308;SDS011;8263;48.880;9.276;2023-05-10T13:14:25;108.90;;;101.80;;
16308;SDS011;8263;48.880;9.276;2023-05-10T13:16:53;110.82;;;103.40;;
16308;SDS011;8263;48.880;9.276;2023-05-10T13:19:21;112.03;;;104.63;;
16308;SDS011;8263;48.880;9.276;2023-05-10T13:21:48;110.20;;;102.57;;
16308;SDS011;8263;48.880;9.276;2023-05-10T13:24:14;111.78;;;104.47;;
16308;SDS011;8263;48.880;9.276;2023-05-10T13:26:42;110.47;;;103.28;;
16308;SDS011;8263;48.880;9.276;2023-05-10T13:29:10;110.35;;;103.15;;
16308;SDS011;8263;48.880;9.276;2023-05-10T13:31:37;111.68;;;104.28;;
16308;SDS011;8263;48.880;9.276;2023-05-10T13:34:04;110.82;;;103.53;;
16308;SDS011;8263;48.880;9.276;2023-05-10T13:36:31;110.63;;;103.43;;
16308;SDS011;8263;48.880;9.276;2023-05-10T13:38:58;111.10;;;103.85;;
16308;SDS011;8263;48.880;9.276;2023-05-10T13:41:27;109.28;;;102.18;;
16308;SDS011;8263;48.880;9.276;2023-05-10T13:43:54;109.15;;;102.05;;
16308;SDS011;8263;48.880;9.276;2023-05-10T13:46:22;107.68;;;100.68;;
16308;SDS011;8263;48.880;9.276;2023-05-10T13:48:48;107.93;;;100.90;;
16308;SDS011;8263;48.880;9.276;2023-05-10T13:51:15;107.75;;;100.70;;
16308;SDS011;8263;48.880;9.276;2023-05-10T13:53:42;109.72;;;102.60;;
16308;SDS011;8263;48.880;9.276;2023-05-10T13:56:08;109.53;;;102.35;;
16308;SDS011;8263;48.880;9.276;2023-05-10T13:58:35;110.63;;;103.40;;
16308;SDS011;8263;48.880;9.276;2023-05-10T14:01:01;110.18;;;102.97;;
16308;SDS011;8263;48.880;9.276;2023-05-10T14:03:29;110.65;;;103.45;;
16308;SDS011;8263;48.880;9.276;2023-05-10T14:05:56;109.18;;;102.07;;
16308;SDS011;8263;48.880;9.276;2023-05-10T14:08:22;109.70;;;102.50;;
16308;SDS011;8263;48.880;9.276;2023-05-10T14:10:49;108.53;;;101.43;;
16308;SDS011;8263;48.880;9.276;2023-05-10T14:13:17;109.15;;;102.05;;
16308;SDS011;8263;48.880;9.276;2023-05-10T14:15:43;107.65;;;100.65;;